Time;durP1;ratioP1;P1;durP2;ratioP2;P2;SDS_P1;SDS_P2;PMS_P1;PMS_P2;Temp;Humidity;BMP_temperature;BMP_pressure;BME280_temperature;BME280_humidity;BME280_pressure;Samples;Min_cycle;Max_cycle;Signal;HPM_P1;HPM_P2
2023/04/11 00:02:20;;;;;;;;;;;8.00;99.90;;;;;;5051973;28;19988;-44
2023/04/11 00:04:47;;;;;;;;;;;8.00;99.90;;;;;;5056134;28;19976;-50
2023/04/11 00:07:13;;;;;;;;;;;7.90;99.90;;;;;;5042729;28;20050;-46
2023/04/11 00:09:40;;;;;;;;;;;7.90;99.90;;;;;;5054338;28;20019;-49
2023/04/11 00:12:07;;;;;;;;;;;7.90;99.90;;;;;;5052898;28;19934;-48
2023/04/11 00:14:33;;;;;;;;;;;7.90;99.90;;;;;;5058255;28;19982;-47
2023/04/11 00:17:00;;;;;;;;;;;7.90;99.90;;;;;;5050819;28;19962;-45
2023/04/11 00:19:28;;;;;;;;;;;7.90;99.90;;;;;;5052225;28;19943;-45
2023/04/11 00:21:57;;;;;;;;;;;7.90;99.90;;;;;;5051702;28;20008;-47
2023/04/11 00:24:23;;;;;;;;;;;7.90;99.90;;;;;;5041388;28;20081;-46
2023/04/11 00:26:50;;;;;;;;;;;7.90;99.90;;;;;;5054150;28;19987;-50
2023/04/11 00:29:16;;;;;;;;;;;7.90;99.90;;;;;;5052220;28;20037;-44
2023/04/11 00:31:43;;;;;;;;;;;7.80;99.90;;;;;;5052536;28;20040;-45
2023/04/11 00:34:10;;;;;;;;;;;7.80;99.90;;;;;;5043485;28;19989;-46
2023/04/11 00:36:40;;;;;;;;;;;7.70;99.90;;;;;;5052603;28;19935;-46
2023/04/11 00:39:07;;;;;;;;;;;7.70;99.90;;;;;;5052153;28;19935;-45
2023/04/11 00:41:34;;;;;;;;;;;7.60;99.90;;;;;;5039138;28;19943;-46
2023/04/11 00:44:00;;;;;;;;;;;7.60;99.90;;;;;;5064170;28;19936;-43
2023/04/11 00:46:27;;;;;;;;;;;7.60;99.90;;;;;;5050944;28;20004;-47
2023/04/11 00:48:54;;;;;;;;;;;7.60;99.90;;;;;;5051687;28;19934;-44
2023/04/11 00:51:20;;;;;;;;;;;7.60;99.90;;;;;;5042880;28;20368;-42
2023/04/11 00:53:48;;;;;;;;;;;7.60;99.90;;;;;;5050536;28;20442;-45
2023/04/11 00:56:15;;;;;;;;;;;7.50;99.90;;;;;;5046793;28;20028;-44
2023/04/11 00:58:42;;;;;;;;;;;7.50;99.90;;;;;;5050923;28;20009;-44
2023/04/11 01:01:08;;;;;;;;;;;7.50;99.90;;;;;;5049132;28;20056;-42
2023/04/11 01:03:36;;;;;;;;;;;7.50;99.90;;;;;;5033572;28;19933;-44
2023/04/11 01:06:02;;;;;;;;;;;7.40;99.90;;;;;;5043270;28;19933;-46
2023/04/11 01:08:29;;;;;;;;;;;7.40;99.90;;;;;;5036771;28;20372;-45
2023/04/11 01:10:57;;;;;;;;;;;7.50;99.90;;;;;;5057965;28;19984;-44
2023/04/11 01:13:24;;;;;;;;;;;7.50;99.90;;;;;;5049046;28;20039;-43
2023/04/11 01:15:50;;;;;;;;;;;7.50;99.90;;;;;;5041070;28;19942;-44
2023/04/11 01:18:17;;;;;;;;;;;7.50;99.90;;;;;;5039253;28;19963;-42
2023/04/11 01:20:43;;;;;;;;;;;7.50;99.90;;;;;;5049068;28;19937;-45
2023/04/11 01:23:10;;;;;;;;;;;7.50;99.90;;;;;;5052095;28;20067;-44
2023/04/11 01:25:38;;;;;;;;;;;7.50;99.90;;;;;;5047991;28;20352;-45
2023/04/11 01:28:07;;;;;;;;;;;7.50;99.90;;;;;;5054564;28;19968;-44
2023/04/11 01:30:34;;;;;;;;;;;7.50;99.90;;;;;;5050385;28;19972;-45
2023/04/11 01:33:00;;;;;;;;;;;7.50;99.90;;;;;;5049943;28;19937;-44
2023/04/11 01:35:27;;;;;;;;;;;7.60;99.90;;;;;;5049779;28;19980;-44
2023/04/11 01:37:53;;;;;;;;;;;7.50;99.90;;;;;;5050402;28;20059;-46
2023/04/11 01:40:22;;;;;;;;;;;7.50;99.90;;;;;;5052643;28;19957;-44
2023/04/11 01:42:50;;;;;;;;;;;7.50;99.90;;;;;;5047936;28;20363;-46
2023/04/11 01:45:17;;;;;;;;;;;7.50;99.90;;;;;;5059940;28;20025;-47
2023/04/11 01:47:44;;;;;;;;;;;7.50;99.90;;;;;;5050639;28;20360;-47
2023/04/11 01:50:11;;;;;;;;;;;7.50;99.90;;;;;;5054154;28;19936;-43
2023/04/11 01:52:37;;;;;;;;;;;7.50;99.90;;;;;;5051052;28;19998;-44
2023/04/11 01:55:04;;;;;;;;;;;7.40;99.90;;;;;;5049927;28;19977;-46
2023/04/11 01:57:31;;;;;;;;;;;7.40;99.90;;;;;;5046698;28;20453;-46
2023/04/11 01:59:59;;;;;;;;;;;7.40;99.90;;;;;;5050909;28;19937;-48
2023/04/11 02:02:26;;;;;;;;;;;7.40;99.90;;;;;;5036455;28;19959;-46
2023/04/11 02:04:52;;;;;;;;;;;7.50;99.90;;;;;;5051812;28;19988;-41
2023/04/11 02:07:20;;;;;;;;;;;7.40;99.90;;;;;;5041002;28;19984;-47
2023/04/11 02:09:47;;;;;;;;;;;7.40;99.90;;;;;;5062329;28;19942;-44
2023/04/11 02:12:13;;;;;;;;;;;7.40;99.90;;;;;;5049754;28;20061;-47
2023/04/11 02:14:41;;;;;;;;;;;7.40;99.90;;;;;;5050396;28;19925;-44
2023/04/11 02:17:09;;;;;;;;;;;7.40;99.90;;;;;;5035884;28;20045;-42
2023/04/11 02:19:36;;;;;;;;;;;7.50;99.90;;;;;;5067465;28;19987;-45
2023/04/11 02:22:03;;;;;;;;;;;7.40;99.90;;;;;;5050168;28;20311;-42
2023/04/11 02:24:29;;;;;;;;;;;7.50;99.90;;;;;;5040727;28;20416;-44
2023/04/11 02:26:56;;;;;;;;;;;7.50;99.90;;;;;;5050397;28;20240;-41
2023/04/11 02:29:22;;;;;;;;;;;7.50;99.90;;;;;;5043941;28;19987;-45
2023/04/11 02:31:49;;;;;;;;;;;7.50;99.90;;;;;;5048314;28;19967;-44
2023/04/11 02:34:17;;;;;;;;;;;7.50;99.90;;;;;;5045544;28;19980;-43
2023/04/11 02:36:44;;;;;;;;;;;7.50;99.90;;;;;;5050574;28;19938;-40
2023/04/11 02:39:11;;;;;;;;;;;7.50;99.90;;;;;;5046601;28;20007;-43
2023/04/11 02:41:38;;;;;;;;;;;7.50;99.90;;;;;;5049017;28;20034;-43
2023/04/11 02:44:04;;;;;;;;;;;7.40;99.90;;;;;;5048321;28;20034;-44
2023/04/11 02:46:31;;;;;;;;;;;7.50;99.90;;;;;;5058315;28;19959;-45
2023/04/11 02:48:58;;;;;;;;;;;7.40;99.90;;;;;;5050616;28;20363;-46
2023/04/11 02:51:26;;;;;;;;;;;7.40;99.90;;;;;;5048169;28;19933;-46
2023/04/11 02:53:52;;;;;;;;;;;7.50;99.90;;;;;;5046747;28;20029;-45
2023/04/11 02:56:19;;;;;;;;;;;7.40;99.90;;;;;;5043995;28;19938;-50
2023/04/11 02:58:45;;;;;;;;;;;7.40;99.90;;;;;;5053364;28;20379;-46
2023/04/11 03:01:13;;;;;;;;;;;7.50;99.90;;;;;;5053340;28;19977;-44
2023/04/11 03:03:40;;;;;;;;;;;7.50;99.90;;;;;;5053451;28;20405;-46
2023/04/11 03:06:07;;;;;;;;;;;7.50;99.90;;;;;;5055112;28;19944;-45
2023/04/11 03:08:36;;;;;;;;;;;7.50;99.90;;;;;;5037209;28;19925;-44
2023/04/11 03:11:02;;;;;;;;;;;7.50;99.90;;;;;;5035100;28;20306;-45
2023/04/11 03:13:29;;;;;;;;;;;7.50;99.90;;;;;;5052692;28;19981;-46
2023/04/11 03:15:56;;;;;;;;;;;7.60;99.90;;;;;;5063740;28;19988;-44
2023/04/11 03:18:22;;;;;;;;;;;7.50;99.90;;;;;;5047933;28;19958;-43
2023/04/11 03:20:49;;;;;;;;;;;7.50;99.90;;;;;;5043837;28;20370;-45
2023/04/11 03:23:15;;;;;;;;;;;7.60;99.90;;;;;;5050933;28;20349;-45
2023/04/11 03:25:44;;;;;;;;;;;7.60;99.90;;;;;;5055989;28;19976;-44
2023/04/11 03:28:11;;;;;;;;;;;7.60;99.90;;;;;;5054816;28;20034;-45
2023/04/11 03:30:39;;;;;;;;;;;7.60;99.90;;;;;;5050461;28;19937;-45
2023/04/11 03:33:06;;;;;;;;;;;7.60;99.90;;;;;;5045075;28;19936;-44
2023/04/11 03:35:33;;;;;;;;;;;7.60;99.90;;;;;;5052361;28;19981;-44
2023/04/11 03:37:59;;;;;;;;;;;7.60;99.90;;;;;;5052741;28;19949;-44
2023/04/11 03:40:26;;;;;;;;;;;7.60;99.90;;;;;;5036449;28;19989;-42
2023/04/11 03:42:54;;;;;;;;;;;7.60;99.90;;;;;;5043695;28;20016;-43
2023/04/11 03:45:20;;;;;;;;;;;7.70;99.90;;;;;;5049828;28;20407;-46
2023/04/11 03:47:47;;;;;;;;;;;7.70;99.90;;;;;;5058197;28;20049;-45
2023/04/11 03:50:14;;;;;;;;;;;7.70;99.90;;;;;;5053144;28;20004;-43
2023/04/11 03:52:40;;;;;;;;;;;7.70;99.90;;;;;;5048753;28;19943;-47
2023/04/11 03:55:07;;;;;;;;;;;7.80;99.90;;;;;;5061704;28;20357;-46
2023/04/11 03:57:34;;;;;;;;;;;7.80;99.90;;;;;;5044674;28;19978;-46
2023/04/11 04:00:04;;;;;;;;;;;7.80;99.90;;;;;;5035605;28;20026;-44
2023/04/11 04:02:31;;;;;;;;;;;7.80;99.90;;;;;;5043870;28;19998;-44
2023/04/11 04:04:58;;;;;;;;;;;7.90;99.90;;;;;;5053163;28;20439;-45
2023/04/11 04:07:24;;;;;;;;;;;7.80;99.90;;;;;;5053042;28;20012;-42
2023/04/11 04:09:51;;;;;;;;;;;7.90;99.90;;;;;;5049865;28;19968;-45
2023/04/11 04:12:18;;;;;;;;;;;7.90;99.90;;;;;;5043262;28;19978;-41
2023/04/11 04:14:44;;;;;;;;;;;7.90;99.90;;;;;;5043630;28;19941;-45
2023/04/11 04:17:13;;;;;;;;;;;7.90;99.90;;;;;;5049553;28;19953;-44
2023/04/11 04:19:39;;;;;;;;;;;7.90;99.90;;;;;;5051281;28;20319;-42
2023/04/11 04:22:10;;;;;;;;;;;8.00;99.90;;;;;;5052153;28;20430;-45
2023/04/11 04:24:38;;;;;;;;;;;7.90;99.90;;;;;;5063534;28;19948;-40
2023/04/11 04:27:07;;;;;;;;;;;7.90;99.90;;;;;;5054256;28;19936;-41
2023/04/11 04:29:37;;;;;;;;;;;8.00;99.90;;;;;;5061278;28;19951;-40
2023/04/11 04:32:09;;;;;;;;;;;8.00;99.90;;;;;;5051116;28;19937;-41
2023/04/11 04:34:40;;;;;;;;;;;8.00;99.90;;;;;;5057459;28;19972;-45
2023/04/11 04:37:06;;;;;;;;;;;8.00;99.90;;;;;;5052103;28;19936;-41
2023/04/11 04:39:33;;;;;;;;;;;8.00;99.90;;;;;;5051829;28;20008;-42
2023/04/11 04:42:00;;;;;;;;;;;7.90;99.90;;;;;;5050602;28;20030;-42
2023/04/11 04:44:27;;;;;;;;;;;8.00;99.90;;;;;;5050861;28;19938;-41
2023/04/11 04:46:53;;;;;;;;;;;8.00;99.90;;;;;;5056218;28;19986;-43
2023/04/11 04:49:20;;;;;;;;;;;8.00;99.90;;;;;;5048998;28;19937;-41
2023/04/11 04:51:48;;;;;;;;;;;7.90;99.90;;;;;;5052971;28;19988;-41
2023/04/11 04:54:18;;;;;;;;;;;7.90;99.90;;;;;;5049876;28;19941;-42
2023/04/11 04:56:44;;;;;;;;;;;7.90;99.90;;;;;;5051240;28;19941;-42
2023/04/11 04:59:14;;;;;;;;;;;7.90;99.90;;;;;;5057068;28;20391;-46
2023/04/11 05:01:40;;;;;;;;;;;7.90;99.90;;;;;;5041112;28;20443;-42
2023/04/11 05:04:07;;;;;;;;;;;7.90;99.90;;;;;;5057793;28;19977;-41
2023/04/11 05:06:34;;;;;;;;;;;7.90;99.90;;;;;;5051066;28;20024;-41
2023/04/11 05:09:04;;;;;;;;;;;7.90;99.90;;;;;;5049182;28;19976;-39
2023/04/11 05:11:31;;;;;;;;;;;7.90;99.90;;;;;;5044639;28;19937;-40
2023/04/11 05:13:58;;;;;;;;;;;7.90;99.90;;;;;;5046374;28;19999;-45
2023/04/11 05:16:25;;;;;;;;;;;7.90;99.90;;;;;;5050355;28;20438;-41
2023/04/11 05:18:52;;;;;;;;;;;7.90;99.90;;;;;;5047899;28;19953;-46
2023/04/11 05:21:18;;;;;;;;;;;7.90;99.90;;;;;;5050058;28;19989;-41
2023/04/11 05:23:45;;;;;;;;;;;7.90;99.90;;;;;;5052571;28;19947;-40
2023/04/11 05:26:13;;;;;;;;;;;7.90;99.90;;;;;;5047167;28;20003;-43
2023/04/11 05:28:40;;;;;;;;;;;7.90;99.90;;;;;;5056332;28;20023;-44
2023/04/11 05:31:07;;;;;;;;;;;7.90;99.90;;;;;;5050576;28;20374;-41
2023/04/11 05:33:33;;;;;;;;;;;7.90;99.90;;;;;;5055144;28;19936;-41
2023/04/11 05:36:00;;;;;;;;;;;7.90;99.90;;;;;;5048201;28;19971;-42
2023/04/11 05:38:27;;;;;;;;;;;7.80;99.90;;;;;;5060069;28;19991;-42
2023/04/11 05:40:53;;;;;;;;;;;7.80;99.90;;;;;;5044996;28;19935;-40
2023/04/11 05:43:21;;;;;;;;;;;7.80;99.90;;;;;;5052663;28;20542;-41
2023/04/11 05:45:48;;;;;;;;;;;7.80;99.90;;;;;;5045536;28;19984;-41
2023/04/11 05:48:14;;;;;;;;;;;7.90;99.90;;;;;;5044844;28;20020;-40
2023/04/11 05:50:41;;;;;;;;;;;7.80;99.90;;;;;;5042138;28;19991;-41
2023/04/11 05:53:08;;;;;;;;;;;7.90;99.90;;;;;;5047285;28;19988;-42
2023/04/11 05:55:35;;;;;;;;;;;7.90;99.90;;;;;;5044346;28;20379;-40
2023/04/11 05:58:01;;;;;;;;;;;7.90;99.90;;;;;;5049259;28;20376;-41
2023/04/11 06:00:31;;;;;;;;;;;7.90;99.90;;;;;;5047171;28;19941;-41
2023/04/11 06:02:58;;;;;;;;;;;7.90;99.90;;;;;;5043070;28;20020;-41
2023/04/11 06:05:25;;;;;;;;;;;7.90;99.90;;;;;;5033767;28;19941;-41
2023/04/11 06:07:53;;;;;;;;;;;7.90;99.90;;;;;;5055031;28;19990;-41
2023/04/11 06:10:20;;;;;;;;;;;7.90;99.90;;;;;;5068678;28;19938;-41
2023/04/11 06:12:46;;;;;;;;;;;7.90;99.90;;;;;;5054413;28;20278;-40
2023/04/11 06:15:13;;;;;;;;;;;7.90;99.90;;;;;;5050997;28;20396;-39
2023/04/11 06:17:41;;;;;;;;;;;7.90;99.90;;;;;;5049513;28;19967;-42
2023/04/11 06:20:09;;;;;;;;;;;8.00;99.90;;;;;;5058788;28;19959;-41
2023/04/11 06:22:35;;;;;;;;;;;8.00;99.90;;;;;;5052968;28;19942;-39
2023/04/11 06:25:03;;;;;;;;;;;8.00;99.90;;;;;;5049260;28;20434;-42
2023/04/11 06:27:30;;;;;;;;;;;8.00;99.90;;;;;;5065613;28;19944;-39
2023/04/11 06:29:56;;;;;;;;;;;8.00;99.90;;;;;;5067180;28;19985;-40
2023/04/11 06:32:24;;;;;;;;;;;8.10;99.90;;;;;;5058372;28;20370;-41
2023/04/11 06:34:52;;;;;;;;;;;8.00;99.90;;;;;;5055851;28;20289;-39
2023/04/11 06:37:18;;;;;;;;;;;8.10;99.90;;;;;;5058553;28;20460;-41
2023/04/11 06:39:45;;;;;;;;;;;8.10;99.90;;;;;;5066962;28;20092;-43
2023/04/11 06:42:11;;;;;;;;;;;8.20;99.90;;;;;;5061046;28;19987;-42
2023/04/11 06:44:38;;;;;;;;;;;8.20;99.90;;;;;;5053933;28;19936;-40
2023/04/11 06:47:05;;;;;;;;;;;8.20;99.90;;;;;;5054059;28;19941;-41
2023/04/11 06:49:32;;;;;;;;;;;8.20;99.90;;;;;;5053769;28;20028;-40
2023/04/11 06:52:00;;;;;;;;;;;8.20;99.90;;;;;;5052871;28;19991;-41
2023/04/11 06:54:26;;;;;;;;;;;8.20;99.90;;;;;;5052867;28;19937;-40
2023/04/11 06:56:53;;;;;;;;;;;8.20;99.90;;;;;;5053155;28;19980;-40
2023/04/11 06:59:20;;;;;;;;;;;8.20;99.90;;;;;;5054023;28;20612;-40
2023/04/11 07:01:47;;;;;;;;;;;8.20;99.90;;;;;;5054012;28;19939;-40
2023/04/11 07:04:13;;;;;;;;;;;8.30;99.90;;;;;;5053079;28;19942;-41
2023/04/11 07:06:40;;;;;;;;;;;8.30;99.90;;;;;;5053821;28;20012;-40
2023/04/11 07:09:09;;;;;;;;;;;8.40;99.90;;;;;;5052839;28;20059;-39
2023/04/11 07:11:37;;;;;;;;;;;8.40;99.90;;;;;;5053867;28;19961;-39
2023/04/11 07:14:03;;;;;;;;;;;8.50;99.90;;;;;;5053835;28;19976;-42
2023/04/11 07:16:30;;;;;;;;;;;8.60;99.90;;;;;;5053719;28;19991;-40
2023/04/11 07:18:58;;;;;;;;;;;8.60;99.90;;;;;;5053571;28;20034;-38
2023/04/11 07:21:26;;;;;;;;;;;8.60;99.90;;;;;;5052885;28;19937;-39
2023/04/11 07:23:53;;;;;;;;;;;8.60;99.90;;;;;;5033431;28;19969;-39
2023/04/11 07:26:22;;;;;;;;;;;8.60;99.90;;;;;;5033812;28;20425;-39
2023/04/11 07:28:50;;;;;;;;;;;8.60;99.90;;;;;;5032376;28;19938;-41
2023/04/11 07:31:20;;;;;;;;;;;8.70;99.90;;;;;;5032567;28;20440;-39
2023/04/11 07:33:46;;;;;;;;;;;8.70;99.90;;;;;;5033182;28;20194;-38
2023/04/11 07:36:13;;;;;;;;;;;8.70;99.90;;;;;;5034920;28;19939;-39
2023/04/11 07:38:40;;;;;;;;;;;8.70;99.90;;;;;;5053131;28;19981;-40
2023/04/11 07:41:06;;;;;;;;;;;8.70;99.90;;;;;;5052389;28;19947;-39
2023/04/11 07:43:35;;;;;;;;;;;8.80;99.90;;;;;;5053213;28;20390;-39
2023/04/11 07:46:02;;;;;;;;;;;8.80;99.90;;;;;;5051885;28;20380;-40
2023/04/11 07:48:29;;;;;;;;;;;8.80;99.90;;;;;;5052432;28;19990;-40
2023/04/11 07:50:56;;;;;;;;;;;8.80;99.90;;;;;;5051957;28;19994;-39
2023/04/11 07:53:23;;;;;;;;;;;8.90;99.90;;;;;;5052138;28;19944;-40
2023/04/11 07:55:49;;;;;;;;;;;8.90;99.90;;;;;;5052171;28;20385;-39
2023/04/11 07:58:16;;;;;;;;;;;9.00;99.90;;;;;;5052121;28;20305;-40
2023/04/11 08:00:44;;;;;;;;;;;9.00;99.90;;;;;;5052895;28;20009;-39
2023/04/11 08:03:11;;;;;;;;;;;9.00;99.90;;;;;;5051196;28;20309;-39
2023/04/11 08:05:38;;;;;;;;;;;9.00;99.90;;;;;;5051810;28;20352;-39
2023/04/11 08:08:05;;;;;;;;;;;9.00;99.90;;;;;;5050997;28;20053;-39
2023/04/11 08:10:32;;;;;;;;;;;9.00;99.90;;;;;;5064991;28;19989;-38
2023/04/11 08:12:58;;;;;;;;;;;9.00;99.90;;;;;;5071858;28;19943;-39
2023/04/11 08:15:25;;;;;;;;;;;9.00;99.90;;;;;;5072752;28;19945;-39
2023/04/11 08:17:55;;;;;;;;;;;9.10;99.90;;;;;;5043519;28;19966;-39
2023/04/11 08:20:22;;;;;;;;;;;9.30;99.90;;;;;;5037967;28;20046;-40
2023/04/11 08:22:48;;;;;;;;;;;9.30;99.90;;;;;;5033665;28;19985;-39
2023/04/11 08:25:15;;;;;;;;;;;9.40;99.90;;;;;;5046525;28;20046;-41
2023/04/11 08:27:42;;;;;;;;;;;9.60;99.90;;;;;;5051844;28;19937;-39
2023/04/11 08:30:09;;;;;;;;;;;9.70;99.90;;;;;;5050976;28;19946;-40
2023/04/11 08:32:35;;;;;;;;;;;9.80;99.90;;;;;;5050269;28;19939;-39
2023/04/11 08:35:04;;;;;;;;;;;10.10;99.90;;;;;;5051016;28;19979;-39
2023/04/11 08:37:30;;;;;;;;;;;10.30;99.90;;;;;;5059507;28;19936;-39
2023/04/11 08:39:57;;;;;;;;;;;10.40;99.90;;;;;;5065482;28;20293;-39
2023/04/11 08:42:24;;;;;;;;;;;10.60;99.90;;;;;;5060579;28;20351;-39
2023/04/11 08:44:52;;;;;;;;;;;10.70;99.90;;;;;;5050724;28;19937;-40
2023/04/11 08:47:18;;;;;;;;;;;10.70;99.90;;;;;;5053044;28;19939;-39
2023/04/11 08:49:45;;;;;;;;;;;10.70;99.90;;;;;;5050630;28;20432;-40
2023/04/11 08:52:13;;;;;;;;;;;10.70;99.90;;;;;;5051787;28;19990;-40
2023/04/11 08:54:40;;;;;;;;;;;10.70;99.90;;;;;;5051864;28;19937;-41
2023/04/11 08:57:06;;;;;;;;;;;10.80;99.90;;;;;;5051993;28;20027;-39
2023/04/11 08:59:33;;;;;;;;;;;10.90;99.90;;;;;;5067232;28;20257;-40
2023/04/11 09:02:05;;;;;;;;;;;11.10;99.90;;;;;;5070437;28;19950;-39
2023/04/11 09:04:38;;;;;;;;;;;11.20;99.90;;;;;;5070485;28;19946;-39
2023/04/11 09:07:05;;;;;;;;;;;11.40;99.90;;;;;;5071694;28;19991;-40
2023/04/11 09:09:35;;;;;;;;;;;11.40;99.90;;;;;;5065291;28;19937;-39
2023/04/11 09:12:02;;;;;;;;;;;11.50;99.90;;;;;;5030442;28;19954;-38
2023/04/11 09:14:28;;;;;;;;;;;11.50;99.90;;;;;;5031132;28;19937;-38
2023/04/11 09:16:56;;;;;;;;;;;11.30;99.90;;;;;;5056916;28;20265;-43
2023/04/11 09:19:23;;;;;;;;;;;11.10;99.90;;;;;;5070078;28;20412;-40
2023/04/11 09:21:51;;;;;;;;;;;10.70;99.90;;;;;;5057011;28;20031;-40
2023/04/11 09:24:18;;;;;;;;;;;10.50;99.90;;;;;;5049702;28;20037;-39
2023/04/11 09:26:46;;;;;;;;;;;10.50;99.90;;;;;;5052810;28;20015;-40
2023/04/11 09:29:13;;;;;;;;;;;10.60;99.90;;;;;;5069925;28;20024;-40
2023/04/11 09:31:40;;;;;;;;;;;10.70;99.90;;;;;;5070315;28;19950;-40
2023/04/11 09:34:07;;;;;;;;;;;10.90;99.90;;;;;;5061344;28;19944;-38
2023/04/11 09:36:34;;;;;;;;;;;10.90;99.90;;;;;;5050642;28;19978;-39
2023/04/11 09:39:03;;;;;;;;;;;10.90;99.90;;;;;;5063162;28;20311;-39
2023/04/11 09:41:31;;;;;;;;;;;10.90;99.90;;;;;;5069719;28;19960;-37
2023/04/11 09:43:59;;;;;;;;;;;10.80;99.90;;;;;;5069844;28;20030;-39
2023/04/11 09:46:25;;;;;;;;;;;10.70;99.90;;;;;;5069768;28;19939;-40
2023/04/11 09:48:53;;;;;;;;;;;10.70;99.90;;;;;;5070856;28;19981;-39
2023/04/11 09:51:20;;;;;;;;;;;10.90;99.90;;;;;;5069984;28;19938;-39
2023/04/11 09:53:46;;;;;;;;;;;11.10;99.90;;;;;;5069714;28;20464;-39
2023/04/11 09:56:13;;;;;;;;;;;11.30;99.90;;;;;;5067664;28;20370;-38
2023/04/11 09:58:40;;;;;;;;;;;11.20;99.90;;;;;;5070710;28;19936;-37
2023/04/11 10:01:09;;;;;;;;;;;11.20;99.90;;;;;;5061557;28;19956;-39
2023/04/11 10:03:36;;;;;;;;;;;11.30;99.90;;;;;;5050200;28;19935;-39
2023/04/11 10:06:04;;;;;;;;;;;11.60;99.90;;;;;;5074802;28;19982;-38
2023/04/11 10:08:32;;;;;;;;;;;11.80;99.90;;;;;;5073707;28;19948;-38
2023/04/11 10:10:59;;;;;;;;;;;12.10;99.90;;;;;;5067598;28;20034;-38
2023/04/11 10:13:38;;;;;;;;;;;12.40;99.90;;;;;;5066007;28;20003;-38
2023/04/11 10:16:07;;;;;;;;;;;12.60;99.90;;;;;;5033196;28;20014;-38
2023/04/11 10:18:35;;;;;;;;;;;12.70;99.90;;;;;;5034281;28;20060;-38
2023/04/11 10:21:03;;;;;;;;;;;12.70;99.90;;;;;;5040449;28;19996;-38
2023/04/11 10:23:29;;;;;;;;;;;12.60;99.90;;;;;;5052961;28;19989;-37
2023/04/11 10:26:00;;;;;;;;;;;12.60;99.90;;;;;;5034302;28;19994;-38
2023/04/11 10:28:33;;;;;;;;;;;12.10;99.90;;;;;;5053585;28;20284;-39
2023/04/11 10:31:03;;;;;;;;;;;11.70;99.90;;;;;;5066731;28;19983;-39
2023/04/11 10:33:30;;;;;;;;;;;11.30;99.90;;;;;;5053159;28;19944;-38
2023/04/11 10:35:58;;;;;;;;;;;11.10;99.90;;;;;;5054058;28;20455;-39
2023/04/11 10:38:43;;;;;;;;;;;10.90;99.90;;;;;;5052677;28;19987;-38
2023/04/11 10:41:16;;;;;;;;;;;10.70;99.90;;;;;;5070126;28;19995;-38
2023/04/11 10:43:43;;;;;;;;;;;10.60;99.90;;;;;;5071204;28;19943;-39
2023/04/11 10:46:16;;;;;;;;;;;10.60;99.90;;;;;;5070926;28;19939;-38
2023/04/11 10:48:55;;;;;;;;;;;10.60;99.90;;;;;;5072762;28;19985;-38
2023/04/11 10:51:23;;;;;;;;;;;10.90;99.90;;;;;;5073895;28;19984;-39
2023/04/11 10:53:51;;;;;;;;;;;11.10;99.90;;;;;;5069962;28;19939;-38
2023/04/11 10:56:32;;;;;;;;;;;11.30;99.90;;;;;;5068451;28;19947;-38
2023/04/11 10:58:59;;;;;;;;;;;11.40;99.90;;;;;;5073213;28;19990;-37
2023/04/11 11:01:26;;;;;;;;;;;11.60;99.90;;;;;;5070569;28;20482;-39
2023/04/11 11:03:58;;;;;;;;;;;11.60;99.90;;;;;;5066501;28;19940;-39
2023/04/11 11:06:27;;;;;;;;;;;11.60;99.90;;;;;;5052517;28;19940;-39
2023/04/11 11:08:54;;;;;;;;;;;11.60;99.90;;;;;;5052801;28;19937;-39
2023/04/11 11:11:21;;;;;;;;;;;11.70;99.90;;;;;;5053455;28;19944;-38
2023/04/11 11:13:50;;;;;;;;;;;11.90;99.90;;;;;;5053613;28;19936;-37
2023/04/11 11:16:17;;;;;;;;;;;12.30;99.90;;;;;;5052128;28;19962;-38
2023/04/11 11:18:47;;;;;;;;;;;12.70;99.90;;;;;;5068366;28;20446;-38
2023/04/11 11:21:15;;;;;;;;;;;13.00;99.90;;;;;;5068401;28;20328;-38
2023/04/11 11:23:56;;;;;;;;;;;13.20;99.90;;;;;;5051923;28;19986;-39
2023/04/11 11:26:23;;;;;;;;;;;13.30;99.90;;;;;;5055867;28;19942;-39
2023/04/11 11:28:50;;;;;;;;;;;13.20;99.90;;;;;;5069980;28;19942;-40
2023/04/11 11:31:16;;;;;;;;;;;12.90;99.90;;;;;;5072993;28;19963;-39
2023/04/11 11:33:43;;;;;;;;;;;12.60;99.90;;;;;;5073004;28;20423;-38
2023/04/11 11:36:10;;;;;;;;;;;12.40;99.90;;;;;;5067349;28;19955;-39
2023/04/11 11:38:37;;;;;;;;;;;12.30;99.90;;;;;;5046761;28;20021;-40
2023/04/11 11:41:05;;;;;;;;;;;12.30;99.90;;;;;;5068176;28;19954;-40
2023/04/11 11:43:35;;;;;;;;;;;12.40;99.90;;;;;;5073040;28;19940;-40
2023/04/11 11:46:08;;;;;;;;;;;12.50;99.90;;;;;;5071864;28;20318;-40
2023/04/11 11:48:35;;;;;;;;;;;12.70;99.90;;;;;;5072664;28;20361;-38
2023/04/11 11:51:02;;;;;;;;;;;12.80;99.90;;;;;;5064311;28;19982;-38
2023/04/11 11:53:28;;;;;;;;;;;12.80;99.90;;;;;;5072714;28;19939;-39
2023/04/11 11:55:55;;;;;;;;;;;12.80;99.90;;;;;;5072719;28;20301;-40
2023/04/11 11:58:23;;;;;;;;;;;12.80;99.90;;;;;;5068310;28;19936;-38
2023/04/11 12:00:50;;;;;;;;;;;12.80;99.90;;;;;;5069217;28;19949;-39
2023/04/11 12:03:17;;;;;;;;;;;12.90;99.90;;;;;;5072508;28;19939;-40
2023/04/11 12:05:46;;;;;;;;;;;13.10;99.90;;;;;;5072813;28;20041;-39
2023/04/11 12:08:13;;;;;;;;;;;13.30;99.90;;;;;;5070702;28;19942;-39
2023/04/11 12:10:40;;;;;;;;;;;13.20;99.90;;;;;;5067132;28;20027;-39
2023/04/11 12:13:13;;;;;;;;;;;13.20;99.90;;;;;;5051921;28;20399;-38
2023/04/11 12:15:41;;;;;;;;;;;13.20;99.80;;;;;;5057749;28;19936;-38
2023/04/11 12:18:08;;;;;;;;;;;13.30;98.90;;;;;;5062894;28;20050;-39
2023/04/11 12:20:35;;;;;;;;;;;13.40;99.90;;;;;;5072346;28;20132;-39
2023/04/11 12:23:01;;;;;;;;;;;13.50;98.00;;;;;;5072088;28;19978;-39
2023/04/11 12:25:28;;;;;;;;;;;13.50;99.90;;;;;;5054233;28;20035;-39
2023/04/11 12:27:55;;;;;;;;;;;13.60;98.30;;;;;;5065760;28;20396;-39
2023/04/11 12:30:21;;;;;;;;;;;13.60;97.50;;;;;;5054046;28;19979;-39
2023/04/11 12:32:49;;;;;;;;;;;13.60;99.90;;;;;;5068699;28;20395;-38
2023/04/11 12:35:16;;;;;;;;;;;13.70;99.10;;;;;;5065727;28;19942;-38
2023/04/11 12:37:43;;;;;;;;;;;13.80;99.30;;;;;;5036286;28;20000;-39
2023/04/11 12:40:10;;;;;;;;;;;13.70;98.30;;;;;;5053126;28;19984;-39
2023/04/11 12:42:38;;;;;;;;;;;13.50;97.90;;;;;;5052858;28;19943;-39
2023/04/11 12:45:06;;;;;;;;;;;13.40;99.80;;;;;;5052028;28;20422;-39
2023/04/11 12:47:33;;;;;;;;;;;13.40;99.90;;;;;;5070248;28;20467;-39
2023/04/11 12:50:00;;;;;;;;;;;13.30;99.90;;;;;;5071758;28;19938;-38
2023/04/11 12:52:27;;;;;;;;;;;13.40;99.90;;;;;;5071581;28;20395;-39
2023/04/11 12:54:54;;;;;;;;;;;13.40;99.90;;;;;;5063954;28;20423;-39
2023/04/11 12:57:21;;;;;;;;;;;13.30;97.20;;;;;;5051729;28;19983;-38
2023/04/11 12:59:47;;;;;;;;;;;13.20;99.60;;;;;;5051610;28;19994;-39
2023/04/11 13:02:15;;;;;;;;;;;13.10;97.30;;;;;;5053144;28;19948;-38
2023/04/11 13:04:41;;;;;;;;;;;13.00;98.10;;;;;;5068058;28;19941;-38
2023/04/11 13:07:09;;;;;;;;;;;13.00;98.80;;;;;;5071548;28;19939;-39
2023/04/11 13:09:36;;;;;;;;;;;13.20;98.60;;;;;;5071466;28;19938;-39
2023/04/11 13:12:02;;;;;;;;;;;13.40;98.40;;;;;;5056225;28;19940;-39
2023/04/11 13:14:29;;;;;;;;;;;13.60;99.20;;;;;;5051457;28;20428;-39
2023/04/11 13:16:56;;;;;;;;;;;13.80;98.20;;;;;;5051368;28;20040;-37
2023/04/11 13:19:23;;;;;;;;;;;13.90;97.10;;;;;;5053093;28;19940;-38
2023/04/11 13:21:49;;;;;;;;;;;14.00;95.00;;;;;;5069025;28;20448;-39
2023/04/11 13:24:17;;;;;;;;;;;13.90;94.30;;;;;;5067096;28;19961;-39
2023/04/11 13:26:44;;;;;;;;;;;13.70;94.10;;;;;;5050978;28;19980;-39
2023/04/11 13:29:11;;;;;;;;;;;13.50;96.70;;;;;;5052192;28;19945;-38
2023/04/11 13:31:38;;;;;;;;;;;13.60;95.70;;;;;;5048931;28;20470;-40
2023/04/11 13:34:04;;;;;;;;;;;13.70;96.70;;;;;;5050953;28;19986;-38
2023/04/11 13:36:31;;;;;;;;;;;13.90;95.70;;;;;;5049219;28;19974;-38
2023/04/11 13:38:58;;;;;;;;;;;14.00;95.10;;;;;;5049717;28;19939;-38
2023/04/11 13:41:26;;;;;;;;;;;14.00;96.10;;;;;;5036057;28;20429;-37
2023/04/11 13:43:53;;;;;;;;;;;14.10;95.00;;;;;;5046571;28;20110;-38
2023/04/11 13:46:20;;;;;;;;;;;14.10;96.00;;;;;;5046636;28;19939;-39
2023/04/11 13:48:47;;;;;;;;;;;14.10;95.00;;;;;;5035860;28;20348;-38
2023/04/11 13:51:13;;;;;;;;;;;14.10;93.90;;;;;;5045331;28;19976;-39
2023/04/11 13:53:40;;;;;;;;;;;14.20;96.00;;;;;;5050673;28;20127;-38
2023/04/11 13:56:07;;;;;;;;;;;14.30;95.10;;;;;;5049664;28;20041;-39
2023/04/11 13:58:36;;;;;;;;;;;14.30;94.10;;;;;;5050118;28;19998;-39
2023/04/11 14:01:03;;;;;;;;;;;14.40;93.40;;;;;;5034903;28;20042;-37
2023/04/11 14:03:32;;;;;;;;;;;14.40;95.00;;;;;;5045687;28;19939;-37
2023/04/11 14:05:58;;;;;;;;;;;14.50;95.90;;;;;;5048425;28;20283;-39
2023/04/11 14:08:25;;;;;;;;;;;14.60;94.30;;;;;;5050374;28;20050;-38
2023/04/11 14:10:52;;;;;;;;;;;14.50;92.80;;;;;;5048626;28;19960;-38
2023/04/11 14:13:19;;;;;;;;;;;14.20;92.00;;;;;;5050544;28;19954;-38
2023/04/11 14:15:47;;;;;;;;;;;13.90;94.30;;;;;;5060551;28;20014;-39
2023/04/11 14:18:13;;;;;;;;;;;13.70;93.90;;;;;;5059767;28;20734;-39
2023/04/11 14:20:40;;;;;;;;;;;13.70;93.30;;;;;;5045581;28;19939;-38
2023/04/11 14:23:09;;;;;;;;;;;13.60;94.40;;;;;;5041144;28;20013;-39
2023/04/11 14:25:35;;;;;;;;;;;13.60;93.70;;;;;;5050591;28;19941;-38